createdAt,value
2022-10-13T00:01:26.672Z,101204.45
2022-10-13T00:03:56.951Z,101207.31
2022-10-13T00:06:26.976Z,101210.45
2022-10-13T00:08:56.948Z,101212.46
2022-10-13T00:11:28.433Z,101208.55
2022-10-13T00:13:59.164Z,101202.84
2022-10-13T00:16:30.599Z,101205.93
2022-10-13T00:18:59.386Z,101204.05
2022-10-13T00:21:28.718Z,101202.78
2022-10-13T00:23:58.917Z,101199.98
2022-10-13T00:26:27.819Z,101196.36
2022-10-13T00:28:57.308Z,101196.96
2022-10-13T00:31:31.648Z,101196.83
2022-10-13T00:34:01.593Z,101197.41
2022-10-13T00:36:30.691Z,101199.09
2022-10-13T00:38:59.767Z,101196.16
2022-10-13T00:41:28.484Z,101195.67
2022-10-13T00:43:59.745Z,101195.16
2022-10-13T00:46:29.947Z,101191.35
2022-10-13T00:49:02.457Z,101195.12
2022-10-13T00:51:35.145Z,101190.63
2022-10-13T00:54:06.124Z,101188.88
2022-10-13T00:56:37.473Z,101181.95
2022-10-13T00:59:13.702Z,101181.13
2022-10-13T01:01:42.388Z,101177.04
2022-10-13T01:04:12.389Z,101176.92
2022-10-13T01:06:41.714Z,101175.83
2022-10-13T01:09:10.314Z,101177.70
2022-10-13T01:11:58.165Z,101178.06
2022-10-13T01:14:34.708Z,101172.90
2022-10-13T01:17:14.020Z,101171.98
2022-10-13T01:20:14.978Z,101175.50
2022-10-13T01:23:00.942Z,101172.86
2022-10-13T01:25:43.132Z,101161.55
2022-10-13T01:28:30.623Z,101161.33
2022-10-13T01:31:05.953Z,101164.00
2022-10-13T01:33:44.227Z,101160.23
2022-10-13T01:36:21.763Z,101161.73
2022-10-13T01:38:57.039Z,101156.31
2022-10-13T01:41:32.040Z,101155.73
2022-10-13T01:44:12.554Z,101152.76
2022-10-13T01:46:43.936Z,101147.55
2022-10-13T01:49:16.160Z,101148.17
2022-10-13T01:51:45.871Z,101141.77
2022-10-13T01:54:14.459Z,101141.23
2022-10-13T01:56:51.395Z,101138.23
2022-10-13T01:59:20.215Z,101133.17
2022-10-13T02:02:01.887Z,101126.97
2022-10-13T02:04:42.886Z,101124.79
2022-10-13T02:07:19.779Z,101119.73
2022-10-13T02:09:56.752Z,101121.61
2022-10-13T02:12:31.166Z,101119.77
2022-10-13T02:15:01.189Z,101113.10
2022-10-13T02:17:31.125Z,101112.77
2022-10-13T02:20:00.687Z,101115.34
2022-10-13T02:22:34.295Z,101119.13
2022-10-13T02:25:03.054Z,101117.75
2022-10-13T02:27:31.718Z,101121.14
2022-10-13T02:30:00.654Z,101122.23
2022-10-13T02:32:29.364Z,101116.41
2022-10-13T02:34:58.428Z,101116.65
2022-10-13T02:37:27.226Z,101112.23
2022-10-13T02:39:55.872Z,101111.65
2022-10-13T02:42:24.506Z,101114.71
2022-10-13T02:44:53.915Z,101113.44
2022-10-13T02:47:22.444Z,101115.50
2022-10-13T02:49:51.084Z,101109.88
2022-10-13T02:52:19.931Z,101110.71
2022-10-13T02:54:48.746Z,101115.09
2022-10-13T02:57:18.628Z,101113.39
2022-10-13T02:59:48.255Z,101110.07
2022-10-13T03:02:17.250Z,101111.25
2022-10-13T03:04:46.745Z,101106.59
2022-10-13T03:07:15.384Z,101105.88
2022-10-13T03:09:44.145Z,101100.68
2022-10-13T03:12:13.515Z,101101.19
2022-10-13T03:14:43.433Z,101100.14
2022-10-13T03:17:13.705Z,101106.77
2022-10-13T03:19:42.870Z,101107.02
2022-10-13T03:22:14.626Z,101104.91
2022-10-13T03:24:54.966Z,101097.89
2022-10-13T03:27:33.968Z,101097.63
2022-10-13T03:30:16.205Z,101096.17
2022-10-13T03:32:56.981Z,101096.98
2022-10-13T03:35:25.642Z,101099.39
2022-10-13T03:37:55.687Z,101093.42
2022-10-13T03:40:24.674Z,101095.80
2022-10-13T03:42:53.315Z,101096.02
2022-10-13T03:45:22.754Z,101097.30
2022-10-13T03:47:51.364Z,101099.63
2022-10-13T03:50:20.423Z,101100.13
2022-10-13T03:52:48.993Z,101102.55
2022-10-13T03:55:18.062Z,101102.08
2022-10-13T03:57:47.417Z,101098.80
2022-10-13T04:00:17.931Z,101097.44
2022-10-13T04:02:48.719Z,101093.98
2022-10-13T04:05:17.446Z,101093.24
2022-10-13T04:07:46.136Z,101099.48
2022-10-13T04:10:15.249Z,101095.66
2022-10-13T04:12:44.071Z,101097.80
2022-10-13T04:15:13.840Z,101097.48
2022-10-13T04:17:43.436Z,101098.31
2022-10-13T04:20:12.990Z,101094.20
2022-10-13T04:22:41.662Z,101099.17
2022-10-13T04:25:11.599Z,101101.35
2022-10-13T04:27:40.292Z,101098.95
2022-10-13T04:30:13.610Z,101095.48
2022-10-13T04:32:42.287Z,101095.45
2022-10-13T04:35:11.621Z,101095.94
2022-10-13T04:37:44.232Z,101096.46
2022-10-13T04:40:15.065Z,101099.38
2022-10-13T04:42:43.752Z,101100.54
2022-10-13T04:45:12.996Z,101101.11
2022-10-13T04:47:41.759Z,101106.33
2022-10-13T04:50:11.203Z,101105.05
2022-10-13T04:52:39.910Z,101107.16
2022-10-13T04:55:09.756Z,101109.06
2022-10-13T04:57:39.611Z,101115.08
2022-10-13T05:00:10.623Z,101115.70
2022-10-13T05:02:39.621Z,101117.59
2022-10-13T05:05:10.222Z,101111.20
2022-10-13T05:07:39.260Z,101116.91
2022-10-13T05:10:08.872Z,101113.68
2022-10-13T05:12:37.454Z,101112.54
2022-10-13T05:15:07.930Z,101111.70
2022-10-13T05:17:36.553Z,101113.75
2022-10-13T05:20:06.139Z,101112.67
2022-10-13T05:22:34.795Z,101113.80
2022-10-13T05:25:04.109Z,101115.95
2022-10-13T05:27:32.709Z,101110.53
2022-10-13T05:30:01.715Z,101118.15
2022-10-13T05:32:30.437Z,101117.30
2022-10-13T05:34:59.436Z,101114.52
2022-10-13T05:37:28.093Z,101111.33
2022-10-13T05:39:56.789Z,101114.40
2022-10-13T05:42:25.937Z,101111.25
2022-10-13T05:44:54.572Z,101111.67
2022-10-13T05:47:27.644Z,101109.20
2022-10-13T05:49:56.491Z,101106.62
2022-10-13T05:52:27.700Z,101112.17
2022-10-13T05:55:00.732Z,101113.85
2022-10-13T05:57:31.396Z,101109.20
2022-10-13T06:00:03.250Z,101112.52
2022-10-13T06:02:37.902Z,101109.86
2022-10-13T06:05:13.224Z,101110.04
2022-10-13T06:07:42.853Z,101110.95
2022-10-13T06:10:12.131Z,101110.92
2022-10-13T06:12:41.155Z,101118.85
2022-10-13T06:15:12.660Z,101119.41
2022-10-13T06:17:41.988Z,101121.34
2022-10-13T06:20:12.426Z,101121.35
2022-10-13T06:22:41.320Z,101123.25
2022-10-13T06:25:11.213Z,101126.40
2022-10-13T06:27:40.010Z,101128.70
2022-10-13T06:30:10.758Z,101127.84
2022-10-13T06:32:39.342Z,101129.66
2022-10-13T06:35:09.712Z,101133.65
2022-10-13T06:37:38.280Z,101133.70
2022-10-13T06:40:10.085Z,101131.62
2022-10-13T06:42:38.839Z,101126.38
2022-10-13T06:45:08.981Z,101120.02
2022-10-13T06:47:37.848Z,101115.02
2022-10-13T06:50:07.603Z,101108.07
2022-10-13T06:52:36.314Z,101106.23
2022-10-13T06:55:06.348Z,101101.72
2022-10-13T06:57:35.892Z,101097.67
2022-10-13T07:00:08.063Z,101099.20
2022-10-13T07:02:36.621Z,101097.59
2022-10-13T07:05:06.084Z,101101.15
2022-10-13T07:07:34.673Z,101095.76
2022-10-13T07:10:03.784Z,101092.92
2022-10-13T07:12:32.503Z,101099.40
2022-10-13T07:15:01.035Z,101104.46
2022-10-13T07:17:29.775Z,101105.73
2022-10-13T07:19:59.651Z,101103.73
2022-10-13T07:22:30.244Z,101096.65
2022-10-13T07:24:59.544Z,101086.96
2022-10-13T07:27:28.728Z,101085.10
2022-10-13T07:29:57.981Z,101085.58
2022-10-13T07:32:26.622Z,101082.86
2022-10-13T07:34:55.733Z,101085.92
2022-10-13T07:37:25.800Z,101088.07
2022-10-13T07:39:55.007Z,101086.23
2022-10-13T07:42:23.906Z,101081.90
2022-10-13T07:44:52.688Z,101075.27
2022-10-13T07:47:21.709Z,101068.44
2022-10-13T07:49:50.888Z,101069.98
2022-10-13T07:52:19.852Z,101064.61
2022-10-13T07:54:48.677Z,101063.85
2022-10-13T07:57:17.846Z,101062.19
2022-10-13T07:59:46.369Z,101060.96
2022-10-13T08:02:15.124Z,101058.95
2022-10-13T08:04:43.729Z,101057.32
2022-10-13T08:07:13.528Z,101053.90
2022-10-13T08:09:42.794Z,101049.13
2022-10-13T08:12:11.976Z,101046.83
2022-10-13T08:14:41.566Z,101039.86
2022-10-13T08:17:10.555Z,101035.16
2022-10-13T08:19:39.118Z,101037.25
2022-10-13T08:22:09.910Z,101034.42
2022-10-13T08:24:38.558Z,101033.17
2022-10-13T08:27:09.964Z,101031.30
2022-10-13T08:29:38.500Z,101028.52
2022-10-13T08:32:07.215Z,101030.46
2022-10-13T08:34:36.566Z,101025.42
2022-10-13T08:37:05.819Z,101027.90
2022-10-13T08:39:34.421Z,101020.64
2022-10-13T08:42:03.153Z,101021.68
2022-10-13T08:47:43.621Z,101015.67
2022-10-13T08:50:17.869Z,101011.98
2022-10-13T08:52:54.063Z,101014.95
2022-10-13T08:55:28.173Z,101017.05
2022-10-13T08:57:56.912Z,101014.77
2022-10-13T09:00:25.516Z,101008.35
2022-10-13T09:02:54.170Z,101005.46
2022-10-13T09:05:36.713Z,101006.07
2022-10-13T09:08:13.990Z,101006.41
2022-10-13T09:10:49.439Z,101010.77
2022-10-13T09:13:19.116Z,101011.63
2022-10-13T09:15:50.420Z,101009.68
2022-10-13T09:18:19.266Z,101009.91
2022-10-13T09:20:48.509Z,101007.91
2022-10-13T09:23:20.100Z,101009.77
2022-10-13T09:25:50.726Z,101009.73
2022-10-13T09:28:23.998Z,101006.62
2022-10-13T09:31:03.088Z,101002.33
2022-10-13T09:33:36.355Z,101003.61
2022-10-13T09:36:11.403Z,101005.18
2022-10-13T09:38:42.104Z,101003.98
2022-10-13T09:41:17.497Z,100997.91
2022-10-13T09:44:00.248Z,100989.61
2022-10-13T09:46:32.852Z,100988.43
2022-10-13T09:49:05.015Z,100983.88
2022-10-13T09:51:40.568Z,100980.36
2022-10-13T09:54:26.965Z,100969.48
2022-10-13T09:56:59.698Z,100969.30
2022-10-13T09:59:33.550Z,100965.48
2022-10-13T10:02:26.542Z,100966.06
2022-10-13T10:05:00.942Z,100959.20
2022-10-13T10:07:32.521Z,100951.02
2022-10-13T10:10:05.557Z,100942.98
2022-10-13T10:12:37.817Z,100931.57
2022-10-13T10:15:21.238Z,100933.67
2022-10-13T10:17:56.219Z,100931.17
2022-10-13T10:20:42.146Z,100933.04
2022-10-13T10:23:17.741Z,100928.23
2022-10-13T10:25:49.533Z,100923.27
2022-10-13T10:28:47.957Z,100920.79
2022-10-13T10:31:29.560Z,100917.03
2022-10-13T10:34:15.389Z,100913.20
2022-10-13T10:36:53.069Z,100907.95
2022-10-13T10:39:31.966Z,100911.69
2022-10-13T10:42:09.601Z,100913.81
2022-10-13T10:44:42.639Z,100912.63
2022-10-13T10:47:22.492Z,100909.33
2022-10-13T10:49:55.045Z,100907.13
2022-10-13T10:52:29.242Z,100903.15
2022-10-13T10:55:11.151Z,100897.20
2022-10-13T10:57:53.292Z,100900.67
2022-10-13T11:00:23.548Z,100892.67
2022-10-13T11:03:02.409Z,100885.98
2022-10-13T11:06:00.745Z,100885.34
2022-10-13T11:08:38.868Z,100881.66
2022-10-13T11:11:34.882Z,100880.29
2022-10-13T11:14:26.089Z,100877.30
2022-10-13T11:17:19.365Z,100874.89
2022-10-13T11:19:51.705Z,100867.35
2022-10-13T11:22:26.161Z,100860.37
2022-10-13T11:25:19.284Z,100854.55
2022-10-13T11:27:48.226Z,100844.58
2022-10-13T11:30:46.833Z,100842.25
2022-10-13T11:33:55.135Z,100843.56
2022-10-13T11:36:52.696Z,100839.29
2022-10-13T11:40:03.581Z,100839.22
2022-10-13T11:43:05.256Z,100838.57
2022-10-13T11:46:08.285Z,100833.08
2022-10-13T11:48:57.682Z,100823.84
2022-10-13T11:51:35.747Z,100825.30
2022-10-13T11:54:17.073Z,100825.98
2022-10-13T11:56:49.489Z,100826.95
2022-10-13T11:59:27.111Z,100820.35
2022-10-13T12:01:57.618Z,100816.70
2022-10-13T12:04:27.867Z,100816.77
2022-10-13T12:07:00.884Z,100815.89
2022-10-13T12:09:31.763Z,100819.36
2022-10-13T12:12:04.668Z,100820.10
2022-10-13T12:17:24.368Z,100803.91
2022-10-13T12:19:54.368Z,100800.94
2022-10-13T12:22:23.563Z,100799.48
2022-10-13T12:25:03.366Z,100791.94
2022-10-13T12:27:33.977Z,100805.64
2022-10-13T12:30:03.871Z,100796.55
2022-10-13T12:32:35.559Z,100793.10
2022-10-13T12:35:18.638Z,100782.17
2022-10-13T12:37:49.415Z,100781.34
2022-10-13T12:40:19.948Z,100778.90
2022-10-13T12:42:50.128Z,100775.59
2022-10-13T12:45:20.661Z,100775.30
2022-10-13T12:47:51.553Z,100772.73
2022-10-13T12:50:38.189Z,100773.96
2022-10-13T12:53:20.065Z,100770.52
2022-10-13T12:55:55.908Z,100767.48
2022-10-13T12:58:28.635Z,100766.13
2022-10-13T13:01:03.260Z,100765.14
2022-10-13T13:03:30.954Z,100758.35
2022-10-13T13:06:11.314Z,100756.27
2022-10-13T13:08:41.565Z,100756.58
2022-10-13T13:11:23.043Z,100746.45
2022-10-13T13:13:52.641Z,100742.87
2022-10-13T13:16:23.352Z,100739.20
2022-10-13T13:18:52.692Z,100742.60
2022-10-13T13:21:21.726Z,100739.38
2022-10-13T13:23:53.976Z,100739.90
2022-10-13T13:26:24.085Z,100739.37
2022-10-13T13:28:54.519Z,100740.36
2022-10-13T13:31:25.533Z,100734.38
2022-10-13T13:33:54.478Z,100731.25
2022-10-13T13:36:25.100Z,100731.00
2022-10-13T13:38:54.654Z,100728.17
2022-10-13T13:41:27.294Z,100726.88
2022-10-13T13:43:55.985Z,100730.32
2022-10-13T13:46:27.229Z,100725.33
2022-10-13T13:48:56.076Z,100725.02
2022-10-13T13:51:25.279Z,100722.34
2022-10-13T13:53:54.686Z,100723.20
2022-10-13T13:56:23.338Z,100718.29
2022-10-13T13:58:52.021Z,100726.43
2022-10-13T14:01:20.858Z,100726.73
2022-10-13T14:03:49.910Z,100728.05
2022-10-13T14:06:19.753Z,100726.42
2022-10-13T14:08:49.136Z,100724.00
2022-10-13T14:11:18.643Z,100717.45
2022-10-13T14:13:47.193Z,100712.45
2022-10-13T14:16:18.400Z,100712.77
2022-10-13T14:18:47.059Z,100713.32
2022-10-13T14:21:15.679Z,100713.34
2022-10-13T14:23:47.007Z,100707.55
2022-10-13T14:26:16.712Z,100712.13
2022-10-13T14:28:45.999Z,100714.04
2022-10-13T14:31:15.728Z,100713.09
2022-10-13T14:33:44.592Z,100709.37
2022-10-13T14:36:13.702Z,100709.86
2022-10-13T14:38:42.343Z,100703.35
2022-10-13T14:41:11.350Z,100696.95
2022-10-13T14:43:40.031Z,100694.33
2022-10-13T14:46:08.765Z,100691.00
2022-10-13T14:48:39.064Z,100687.84
2022-10-13T14:51:09.316Z,100683.39
2022-10-13T14:53:39.438Z,100681.87
2022-10-13T14:56:17.511Z,100678.06
2022-10-13T14:58:46.890Z,100678.50
2022-10-13T15:01:16.534Z,100678.79
2022-10-13T15:03:45.517Z,100673.52
2022-10-13T15:06:16.770Z,100672.38
2022-10-13T15:08:46.934Z,100669.36
2022-10-13T15:11:17.683Z,100667.96
2022-10-13T15:13:46.646Z,100671.34
2022-10-13T15:16:17.361Z,100672.45
2022-10-13T15:18:46.951Z,100677.11
2022-10-13T15:21:15.925Z,100676.55
2022-10-13T15:23:45.098Z,100677.79
2022-10-13T15:26:15.703Z,100675.66
2022-10-13T15:28:46.652Z,100671.48
2022-10-13T15:31:16.464Z,100672.80
2022-10-13T15:33:47.083Z,100672.48
2022-10-13T15:36:15.794Z,100675.41
2022-10-13T15:38:44.637Z,100673.30
2022-10-13T15:41:13.396Z,100675.78
2022-10-13T15:43:42.824Z,100679.73
2022-10-13T15:46:20.656Z,100681.19
2022-10-13T15:48:49.682Z,100682.35
2022-10-13T15:51:20.433Z,100683.53
2022-10-13T15:53:49.783Z,100678.55
2022-10-13T15:56:18.408Z,100676.89
2022-10-13T15:58:47.236Z,100676.02
2022-10-13T16:01:15.860Z,100679.77
2022-10-13T16:03:44.764Z,100679.29
2022-10-13T16:06:13.914Z,100676.09
2022-10-13T16:08:43.871Z,100673.87
2022-10-13T16:11:14.558Z,100672.73
2022-10-13T16:13:45.637Z,100671.02
2022-10-13T16:16:15.260Z,100669.65
2022-10-13T16:18:44.445Z,100669.69
2022-10-13T16:21:18.610Z,100668.59
2022-10-13T16:23:47.368Z,100667.58
2022-10-13T16:26:17.419Z,100669.40
2022-10-13T16:28:46.986Z,100673.66
2022-10-13T16:31:17.528Z,100674.90
2022-10-13T16:33:47.211Z,100674.45
2022-10-13T16:36:18.024Z,100666.92
2022-10-13T16:38:48.155Z,100678.10
2022-10-13T16:41:18.774Z,100675.36
2022-10-13T16:43:49.678Z,100677.69
2022-10-13T16:46:20.470Z,100677.94
2022-10-13T16:48:49.593Z,100678.96
2022-10-13T16:51:21.104Z,100679.95
2022-10-13T16:53:51.078Z,100677.60
2022-10-13T16:56:21.740Z,100676.81
2022-10-13T16:58:51.430Z,100673.79
2022-10-13T17:01:20.887Z,100670.75
2022-10-13T17:03:51.199Z,100667.95
2022-10-13T17:06:22.848Z,100665.58
2022-10-13T17:08:51.957Z,100660.02
2022-10-13T17:11:23.999Z,100660.24
2022-10-13T17:13:52.990Z,100658.61
2022-10-13T17:16:21.724Z,100653.95
2022-10-13T17:18:50.527Z,100654.31
2022-10-13T17:21:20.704Z,100652.73
2022-10-13T17:23:50.863Z,100648.11
2022-10-13T17:26:21.646Z,100651.73
2022-10-13T17:28:50.825Z,100655.23
2022-10-13T17:31:32.350Z,100654.22
2022-10-13T17:34:02.223Z,100653.86
2022-10-13T17:36:32.602Z,100652.37
2022-10-13T17:39:06.078Z,100650.45
2022-10-13T17:41:35.392Z,100651.21
2022-10-13T17:44:05.353Z,100647.55
2022-10-13T17:46:37.392Z,100646.39
2022-10-13T17:49:08.491Z,100645.80
2022-10-13T17:51:37.894Z,100639.48
2022-10-13T17:54:11.483Z,100640.29
2022-10-13T17:56:44.499Z,100639.14
2022-10-13T17:59:13.972Z,100637.81
2022-10-13T18:01:44.817Z,100637.61
2022-10-13T18:04:17.279Z,100635.86
2022-10-13T18:06:48.240Z,100637.05
2022-10-13T18:09:19.542Z,100638.67
2022-10-13T18:11:51.389Z,100638.58
2022-10-13T18:14:28.950Z,100631.81
2022-10-13T18:16:58.392Z,100632.13
2022-10-13T18:19:27.408Z,100629.36
2022-10-13T18:22:12.974Z,100627.59
2022-10-13T18:24:57.227Z,100627.38
2022-10-13T18:27:26.632Z,100627.37
2022-10-13T18:29:58.595Z,100623.52
2022-10-13T18:32:27.783Z,100629.86
2022-10-13T18:34:56.601Z,100630.55
2022-10-13T18:37:38.561Z,100632.09
2022-10-13T18:40:21.429Z,100630.59
2022-10-13T18:43:04.188Z,100632.45
2022-10-13T18:45:53.071Z,100630.05
2022-10-13T18:48:36.035Z,100629.05
2022-10-13T18:51:20.410Z,100633.77
2022-10-13T18:53:50.790Z,100633.45
2022-10-13T18:56:21.694Z,100631.40
2022-10-13T18:58:59.442Z,100632.48
2022-10-13T19:01:31.037Z,100631.98
2022-10-13T19:04:00.768Z,100637.38
2022-10-13T19:06:31.766Z,100634.35
2022-10-13T19:09:03.736Z,100634.16
2022-10-13T19:11:33.754Z,100633.53
2022-10-13T19:14:05.416Z,100631.83
2022-10-13T19:16:37.039Z,100634.23
2022-10-13T19:19:07.964Z,100633.55
2022-10-13T19:21:38.723Z,100628.73
2022-10-13T19:24:09.104Z,100630.19
2022-10-13T19:26:38.897Z,100629.51
2022-10-13T19:29:10.059Z,100635.36
2022-10-13T19:31:41.762Z,100633.51
2022-10-13T19:34:23.563Z,100634.48
2022-10-13T19:37:08.144Z,100633.30
2022-10-13T19:39:50.379Z,100634.27
2022-10-13T19:42:33.130Z,100629.41
2022-10-13T19:45:16.630Z,100632.14
2022-10-13T19:47:47.577Z,100634.02
2022-10-13T19:50:17.221Z,100629.30
2022-10-13T19:52:46.545Z,100626.81
2022-10-13T19:55:20.251Z,100630.17
2022-10-13T19:57:49.728Z,100626.30
2022-10-13T20:00:19.480Z,100625.17
2022-10-13T20:02:48.364Z,100624.16
2022-10-13T20:05:20.912Z,100620.15
2022-10-13T20:07:54.054Z,100623.70
2022-10-13T20:10:23.509Z,100615.88
2022-10-13T20:12:52.791Z,100615.81
2022-10-13T20:15:21.531Z,100612.73
2022-10-13T20:17:50.639Z,100612.65
2022-10-13T20:20:22.536Z,100609.36
2022-10-13T20:22:51.343Z,100605.64
2022-10-13T20:25:20.898Z,100605.16
2022-10-13T20:27:49.587Z,100602.84
2022-10-13T20:30:18.858Z,100602.20
2022-10-13T20:32:47.626Z,100603.13
2022-10-13T20:35:16.896Z,100602.91
2022-10-13T20:37:45.968Z,100601.70
2022-10-13T20:40:15.881Z,100598.86
2022-10-13T20:42:50.869Z,100598.42
2022-10-13T20:45:19.781Z,100596.96
2022-10-13T20:47:49.683Z,100600.20
2022-10-13T20:50:19.222Z,100597.17
2022-10-13T20:52:47.878Z,100596.89
2022-10-13T20:55:17.607Z,100600.37
2022-10-13T20:57:50.198Z,100598.34
2022-10-13T21:00:20.021Z,100595.88
2022-10-13T21:02:48.908Z,100594.15
2022-10-13T21:05:17.701Z,100593.27
2022-10-13T21:07:46.281Z,100591.77
2022-10-13T21:10:14.927Z,100589.88
2022-10-13T21:12:44.972Z,100593.09
2022-10-13T21:15:14.678Z,100592.23
2022-10-13T21:17:43.976Z,100594.38
2022-10-13T21:20:13.026Z,100592.17
2022-10-13T21:22:41.740Z,100593.69
2022-10-13T21:25:12.034Z,100593.64
2022-10-13T21:27:44.092Z,100590.95
2022-10-13T21:30:15.832Z,100592.13
2022-10-13T21:32:44.606Z,100591.21
2022-10-13T21:35:13.624Z,100592.63
2022-10-13T21:37:42.961Z,100583.93
2022-10-13T21:40:12.335Z,100583.12
2022-10-13T21:42:41.455Z,100581.30
2022-10-13T21:45:13.394Z,100586.21
2022-10-13T21:47:44.464Z,100586.70
2022-10-13T21:50:13.873Z,100585.84
2022-10-13T21:52:42.916Z,100582.79
2022-10-13T21:55:12.060Z,100579.61
2022-10-13T21:57:42.425Z,100580.44
2022-10-13T22:00:15.258Z,100580.67
2022-10-13T22:02:44.824Z,100575.43
2022-10-13T22:05:17.697Z,100575.90
2022-10-13T22:07:47.624Z,100573.80
2022-10-13T22:10:21.807Z,100575.37
2022-10-13T22:12:50.936Z,100575.80
2022-10-13T22:15:19.627Z,100571.54
2022-10-13T22:17:48.254Z,100570.48
2022-10-13T22:20:17.327Z,100566.41
2022-10-13T22:22:46.003Z,100569.26
2022-10-13T22:25:14.759Z,100562.70
2022-10-13T22:27:43.368Z,100560.89
2022-10-13T22:30:13.250Z,100564.77
2022-10-13T22:32:42.829Z,100560.66
2022-10-13T22:35:11.469Z,100563.42
2022-10-13T22:37:40.389Z,100560.72
2022-10-13T22:40:11.570Z,100558.45
2022-10-13T22:42:40.232Z,100554.82
2022-10-13T22:45:10.966Z,100553.95
2022-10-13T22:47:40.054Z,100552.18
2022-10-13T22:50:09.998Z,100552.45
2022-10-13T22:52:38.539Z,100555.13
2022-10-13T22:55:09.429Z,100545.70
2022-10-13T22:57:38.119Z,100544.85
2022-10-13T23:00:10.787Z,100541.66
2022-10-13T23:02:39.301Z,100540.72
2022-10-13T23:05:09.033Z,100538.91
2022-10-13T23:07:37.743Z,100538.03
2022-10-13T23:10:08.397Z,100540.59
2022-10-13T23:12:37.293Z,100539.38
2022-10-13T23:15:09.847Z,100533.54
2022-10-13T23:17:38.369Z,100534.05
2022-10-13T23:20:08.967Z,100537.94
2022-10-13T23:22:37.605Z,100538.27
2022-10-13T23:25:08.783Z,100534.78
2022-10-13T23:27:37.634Z,100538.02
2022-10-13T23:30:10.323Z,100538.35
2022-10-13T23:32:39.216Z,100534.42
2022-10-13T23:35:08.943Z,100534.32
2022-10-13T23:37:37.638Z,100526.66
2022-10-13T23:40:08.857Z,100528.64
2022-10-13T23:42:49.646Z,100530.63
2022-10-13T23:45:18.680Z,100531.12
2022-10-13T23:47:47.395Z,100534.81
2022-10-13T23:50:16.222Z,100530.16
2022-10-13T23:52:45.189Z,100526.87
2022-10-13T23:55:13.897Z,100527.73
2022-10-13T23:57:42.391Z,100520.76
